Time;durP1;ratioP1;P1;durP2;ratioP2;P2;SDS_P1;SDS_P2;PMS_P1;PMS_P2;Temp;Humidity;BMP_temperature;BMP_pressure;BME280_temperature;BME280_humidity;BME280_pressure;Samples;Min_cycle;Max_cycle;Signal;HPM_P1;HPM_P2
2021/12/15 00:00:22;;;;;;;;;41.25;37.00;;;;;9.20;77.46;102452.34;5056544;28;45247;-74
2021/12/15 00:02:51;;;;;;;;;44.50;36.25;;;;;9.33;77.43;102474.81;5056486;28;47518;-73
2021/12/15 00:05:23;;;;;;;;;52.00;36.50;;;;;9.34;77.73;102468.72;5055793;28;45393;-72
2021/12/15 00:07:54;;;;;;;;;48.50;38.25;;;;;9.34;77.63;102463.44;5054594;28;45443;-74
2021/12/15 00:10:20;;;;;;;;;40.00;36.00;;;;;9.28;77.40;102450.94;5056062;28;45398;-74
2021/12/15 00:12:46;;;;;;;;;42.25;39.50;;;;;9.33;77.37;102464.28;5056824;28;47296;-74
2021/12/15 00:15:12;;;;;;;;;41.25;35.50;;;;;9.23;77.69;102441.97;5056439;28;45315;-73
2021/12/15 00:17:38;;;;;;;;;43.75;38.25;;;;;9.28;77.65;102452.66;5055601;28;45310;-73
2021/12/15 00:20:11;;;;;;;;;53.50;42.75;;;;;9.25;77.40;102457.81;5037619;28;45398;-74
2021/12/15 00:22:38;;;;;;;;;46.25;39.25;;;;;9.28;77.93;102457.94;5055210;28;46558;-75
2021/12/15 00:25:05;;;;;;;;;43.00;39.75;;;;;9.22;77.44;102442.81;5055797;28;45359;-74
2021/12/15 00:27:31;;;;;;;;;49.75;39.75;;;;;9.24;76.91;102449.03;5056639;28;45216;-75
2021/12/15 00:29:57;;;;;;;;;47.50;38.00;;;;;9.20;77.64;102447.09;5056673;28;45332;-74
2021/12/15 00:32:22;;;;;;;;;50.00;41.25;;;;;9.30;77.41;102457.16;5055387;28;45632;-74
2021/12/15 00:34:50;;;;;;;;;43.00;36.50;;;;;9.27;77.87;102451.78;5054787;28;45263;-73
2021/12/15 00:37:19;;;;;;;;;50.75;38.75;;;;;9.27;77.21;102448.25;5055772;28;45404;-74
2021/12/15 00:39:45;;;;;;;;;52.50;41.00;;;;;9.33;77.10;102461.66;5055521;28;45380;-75
2021/12/15 00:42:11;;;;;;;;;53.00;43.25;;;;;9.32;77.39;102449.34;5055550;28;46293;-74
2021/12/15 00:44:37;;;;;;;;;45.00;36.75;;;;;9.26;77.30;102436.84;5055884;28;45245;-73
2021/12/15 00:47:03;;;;;;;;;51.50;41.25;;;;;9.31;76.61;102440.56;5056449;28;45319;-74
2021/12/15 00:49:29;;;;;;;;;41.50;38.00;;;;;9.32;77.11;102444.97;5056228;28;45255;-74
2021/12/15 00:51:55;;;;;;;;;50.50;41.50;;;;;9.38;76.93;102452.19;5054720;28;45748;-72
2021/12/15 00:54:22;;;;;;;;;42.25;38.25;;;;;9.24;77.05;102438.50;5056041;28;45438;-73
2021/12/15 00:56:49;;;;;;;;;51.00;39.25;;;;;9.34;76.68;102451.19;5059409;28;45389;-74
2021/12/15 00:59:15;;;;;;;;;41.25;39.00;;;;;9.36;76.71;102454.78;5059781;28;45397;-74
2021/12/15 01:01:41;;;;;;;;;42.75;38.00;;;;;9.35;76.06;102454.72;5059144;28;45515;-72
2021/12/15 01:04:09;;;;;;;;;46.75;38.25;;;;;9.27;76.09;102443.88;5058884;28;45356;-74
2021/12/15 01:06:37;;;;;;;;;44.25;37.00;;;;;9.34;75.99;102455.56;5058634;28;45447;-74
2021/12/15 01:09:08;;;;;;;;;45.75;40.50;;;;;9.33;76.42;102453.78;5058410;28;45480;-74
2021/12/15 01:19:46;;;;;;;;;41.00;37.75;;;;;9.35;76.24;102450.34;5058979;28;45544;-73
2021/12/15 01:20:00;;;;;;;;;40.75;33.25;;;;;9.33;75.52;102446.78;5059056;28;45416;-74
2021/12/15 01:22:33;;;;;;;;;42.25;38.75;;;;;9.29;76.18;102442.22;5058597;28;45914;-72
2021/12/15 01:25:22;;;;;;;;;36.00;34.75;;;;;9.31;75.90;102448.44;5056938;28;45442;-75
2021/12/15 01:27:49;;;;;;;;;50.25;39.50;;;;;9.40;76.34;102455.81;5058269;28;45265;-73
2021/12/15 01:30:17;;;;;;;;;47.25;38.25;;;;;9.38;75.95;102444.31;5057803;28;45233;-72
2021/12/15 01:32:43;;;;;;;;;47.50;37.00;;;;;9.39;76.18;102452.25;5040650;28;46582;-72
2021/12/15 01:35:10;;;;;;;;;40.00;35.25;;;;;9.35;76.38;102444.19;5058082;28;45320;-74
2021/12/15 01:37:35;;;;;;;;;49.00;40.75;;;;;9.37;76.44;102453.03;5057981;28;45437;-74
2021/12/15 01:40:02;;;;;;;;;47.00;34.75;;;;;9.30;76.46;102451.88;5058126;28;45445;-74
2021/12/15 01:42:31;;;;;;;;;48.25;39.50;;;;;9.33;76.86;102449.41;5057342;28;46465;-75
2021/12/15 01:47:41;;;;;;;;;46.25;37.25;;;;;9.37;76.35;102451.31;5058117;28;45350;-72
2021/12/15 01:50:11;;;;;;;;;39.75;36.00;;;;;9.39;76.33;102448.72;5058098;28;45389;-72
2021/12/15 01:52:41;;;;;;;;;37.50;33.75;;;;;9.41;76.67;102455.88;5057840;28;46530;-72
2021/12/15 01:55:14;;;;;;;;;32.50;21.75;;;;;9.43;76.69;102459.44;5057610;28;45447;-73
2021/12/15 01:57:40;;;;;;;;;46.75;34.50;;;;;9.49;76.18;102457.88;5058535;28;45441;-72
2021/12/15 02:00:31;;;;;;;;;42.00;37.00;;;;;9.48;76.22;102470.13;5057162;28;45656;-72
2021/12/15 02:02:57;;;;;;;;;37.50;35.75;;;;;9.51;76.11;102469.38;5056900;28;45449;-72
2021/12/15 02:05:30;;;;;;;;;50.75;38.25;;;;;9.51;76.52;102467.66;5057489;28;45457;-73
2021/12/15 02:07:59;;;;;;;;;37.50;36.75;;;;;9.51;75.62;102464.13;5058267;28;45430;-73
2021/12/15 02:10:27;;;;;;;;;37.50;35.75;;;;;9.52;75.72;102465.91;5058878;28;45390;-73
2021/12/15 02:12:53;;;;;;;;;47.25;36.75;;;;;9.54;75.78;102467.75;5058265;28;46693;-72
2021/12/15 02:15:23;;;;;;;;;46.50;38.50;;;;;9.55;75.76;102477.44;5057920;28;45355;-73
2021/12/15 02:17:48;;;;;;;;;31.00;28.75;;;;;9.51;75.61;102466.75;5058263;28;45319;-73
2021/12/15 02:20:18;;;;;;;;;41.25;36.00;;;;;9.50;75.91;102476.38;5058598;28;45216;-72
2021/12/15 02:22:44;;;;;;;;;41.25;33.75;;;;;9.55;75.36;102477.44;5039921;28;47642;-73
2021/12/15 02:25:13;;;;;;;;;42.25;35.75;;;;;9.54;75.54;102482.66;5058124;28;45353;-72
2021/12/15 02:27:40;;;;;;;;;36.75;35.25;;;;;9.55;75.83;102474.81;5058285;28;45445;-72
2021/12/15 02:38:06;;;;;;;;;46.50;39.25;;;;;9.46;75.72;102468.28;5037860;28;45363;-70
2021/12/15 02:40:32;;;;;;;;;37.50;31.50;;;;;9.40;75.74;102463.72;5020110;28;45284;-72
2021/12/15 02:42:58;;;;;;;;;45.50;38.00;;;;;9.52;75.63;102476.44;5037583;28;45708;-72
2021/12/15 02:45:26;;;;;;;;;39.75;36.50;;;;;9.43;75.61;102467.34;5037318;28;45425;-73
2021/12/15 02:47:53;;;;;;;;;39.75;37.25;;;;;9.54;75.21;102486.16;5056676;28;45191;-72
2021/12/15 02:50:24;;;;;;;;;43.00;33.75;;;;;9.53;75.56;102478.22;5057757;28;45330;-72
2021/12/15 02:52:51;;;;;;;;;43.00;30.50;;;;;9.53;75.00;102478.22;5057837;28;47469;-72
2021/12/15 02:55:17;;;;;;;;;38.00;32.75;;;;;9.45;75.29;102461.25;5057558;28;45448;-72
2021/12/15 02:57:44;;;;;;;;;33.00;29.00;;;;;9.55;75.89;102482.69;5057327;28;45434;-72
2021/12/15 03:00:25;;;;;;;;;41.00;35.75;;;;;9.46;75.64;102465.66;5057990;28;45488;-71
2021/12/15 03:03:39;;;;;;;;;43.00;36.50;;;;;9.54;75.36;102477.38;5056842;28;46588;-71
2021/12/15 03:06:04;;;;;;;;;36.75;32.50;;;;;9.50;75.06;102471.13;5057166;28;45198;-72
2021/12/15 03:16:41;;;;;;;;;34.50;30.50;;;;;9.43;74.89;102461.19;5056129;28;45496;-71
2021/12/15 03:19:07;;;;;;;;;36.00;30.00;;;;;9.42;75.31;102467.28;5057093;28;45415;-72
2021/12/15 03:21:32;;;;;;;;;39.25;32.50;;;;;9.41;75.43;102468.13;5057062;28;45482;-72
2021/12/15 03:24:06;;;;;;;;;40.75;35.50;;;;;9.40;74.72;102468.97;5057340;28;46888;-72
2021/12/15 03:26:39;;;;;;;;;31.00;29.75;;;;;9.34;75.22;102463.44;5056982;28;45562;-72
2021/12/15 03:35:05;;;;;;;;;43.00;31.00;;;;;9.32;75.28;102458.13;5014940;28;45770;-72
2021/12/15 03:37:36;;;;;;;;;49.00;35.00;;;;;9.40;74.78;102471.59;5014898;28;45347;-71
2021/12/15 03:40:07;;;;;;;;;37.50;31.50;;;;;9.37;74.76;102474.97;5014278;28;45442;-72
2021/12/15 03:42:40;;;;;;;;;35.50;33.00;;;;;9.38;75.29;102476.75;5014758;28;45330;-72
2021/12/15 03:45:10;;;;;;;;;33.00;30.50;;;;;9.41;75.19;102479.53;5014207;28;46158;-71
2021/12/15 03:47:39;;;;;;;;;34.25;29.00;;;;;9.40;75.24;102479.47;5014659;28;45432;-71
2021/12/15 03:50:07;;;;;;;;;38.50;33.25;;;;;9.35;75.69;102474.03;5014510;28;45327;-73
2021/12/15 03:52:34;;;;;;;;;38.25;28.25;;;;;9.31;75.39;102458.06;5007600;28;45478;-72
2021/12/15 03:55:00;;;;;;;;;42.25;34.50;;;;;9.43;75.35;102474.34;5014699;28;47616;-72
2021/12/15 03:57:25;;;;;;;;;42.50;34.75;;;;;9.35;75.44;102467.88;5014838;28;45301;-71
2021/12/15 03:59:51;;;;;;;;;38.50;31.25;;;;;9.41;75.67;102479.53;5014618;28;45200;-72
2021/12/15 04:02:19;;;;;;;;;33.75;32.75;;;;;9.46;75.37;102476.19;5014615;28;45498;-71
2021/12/15 04:04:46;;;;;;;;;38.25;33.50;;;;;9.45;75.13;102477.91;5014411;28;46482;-70
2021/12/15 04:07:13;;;;;;;;;30.75;28.50;;;;;9.38;74.32;102467.97;5035429;28;45398;-72
2021/12/15 04:09:39;;;;;;;;;33.25;28.00;;;;;9.34;74.28;102471.34;5037144;28;45374;-74
2021/12/15 04:12:05;;;;;;;;;32.75;30.00;;;;;9.33;75.02;102474.81;5054641;28;45422;-73
2021/12/15 04:14:41;;;;;;;;;30.00;28.25;;;;;9.27;74.87;102464.91;5056361;28;45499;-74
2021/12/15 04:17:17;;;;;;;;;38.50;35.25;;;;;9.32;75.03;102483.53;5056400;28;45246;-74
2021/12/15 04:19:43;;;;;;;;;33.50;30.00;;;;;9.31;75.35;102472.13;5056663;28;45421;-71
2021/12/15 04:22:08;;;;;;;;;35.75;27.25;;;;;9.30;75.01;102472.94;5056377;28;45434;-74
2021/12/15 04:24:35;;;;;;;;;40.25;35.75;;;;;9.27;75.53;102466.66;5055960;28;45417;-74
2021/12/15 04:27:03;;;;;;;;;33.00;30.50;;;;;9.26;75.30;102467.50;5056129;28;45420;-72
2021/12/15 04:29:29;;;;;;;;;36.00;31.00;;;;;9.27;75.17;102464.03;5058195;28;45560;-73
2021/12/15 04:32:08;;;;;;;;;34.50;30.75;;;;;9.30;75.41;102472.94;5059272;28;45358;-73
2021/12/15 04:34:34;;;;;;;;;32.25;26.75;;;;;9.27;75.21;102472.81;5059392;28;46482;-73
2021/12/15 04:36:59;;;;;;;;;37.50;33.00;;;;;9.21;74.85;102459.41;5059803;28;45396;-71
2021/12/15 04:39:27;;;;;;;;;33.50;28.75;;;;;9.24;75.00;102463.91;5059921;28;45342;-72
2021/12/15 04:41:54;;;;;;;;;29.75;27.00;;;;;9.31;74.92;102472.13;5059439;28;45465;-69
2021/12/15 04:44:24;;;;;;;;;34.75;30.00;;;;;9.22;74.72;102452.44;5058143;28;47388;-72
2021/12/15 04:47:03;;;;;;;;;34.25;27.25;;;;;9.14;74.51;102445.13;5059354;28;45453;-73
2021/12/15 04:49:32;;;;;;;;;35.00;28.25;;;;;9.32;74.93;102475.66;5059429;28;45271;-72
2021/12/15 04:51:58;;;;;;;;;25.00;24.75;;;;;9.33;74.65;102478.34;5059984;28;45531;-73
2021/12/15 04:54:23;;;;;;;;;34.50;30.25;;;;;9.32;74.27;102471.28;5059139;28;46120;-72
2021/12/15 04:56:49;;;;;;;;;33.00;29.00;;;;;9.36;74.93;102486.34;5059569;28;45322;-74
2021/12/15 04:59:15;;;;;;;;;28.50;26.00;;;;;9.36;74.31;102477.56;5059647;28;45375;-74
2021/12/15 05:01:41;;;;;;;;;28.25;24.25;;;;;9.38;74.29;102478.50;5059669;28;45279;-73
2021/12/15 05:04:06;;;;;;;;;30.75;28.50;;;;;9.32;74.23;102476.53;5058922;28;46044;-73
2021/12/15 05:06:32;;;;;;;;;29.25;25.25;;;;;9.37;74.41;102489.88;5059033;28;45323;-74
2021/12/15 05:09:00;;;;;;;;;26.50;26.25;;;;;9.34;74.14;102495.00;5059740;28;45228;-73
2021/12/15 05:11:26;;;;;;;;;33.75;26.50;;;;;9.25;74.08;102479.75;5059727;28;45249;-72
2021/12/15 05:13:52;;;;;;;;;22.75;22.75;;;;;9.36;74.02;102496.84;5059010;28;45813;-73
2021/12/15 05:16:17;;;;;;;;;31.00;27.50;;;;;9.25;73.92;102478.84;5058669;28;45226;-73
2021/12/15 05:18:43;;;;;;;;;33.75;30.00;;;;;9.33;74.07;102502.00;5059377;28;45572;-73
2021/12/15 05:21:10;;;;;;;;;24.50;23.50;;;;;9.28;74.23;102494.75;5058970;28;45433;-72
2021/12/15 05:23:36;;;;;;;;;33.00;28.25;;;;;9.22;74.45;102489.25;5058455;28;45380;-69
2021/12/15 05:26:02;;;;;;;;;24.75;24.25;;;;;9.17;74.11;102475.00;5058678;28;45463;-74
2021/12/15 05:28:28;;;;;;;;;28.75;22.25;;;;;9.17;73.90;102486.44;5059270;28;45329;-73
2021/12/15 05:30:56;;;;;;;;;24.00;22.75;;;;;9.28;74.11;102515.78;5059187;28;45588;-73
2021/12/15 05:33:22;;;;;;;;;23.00;23.00;;;;;9.25;74.33;102499.88;5058886;28;46709;-74
2021/12/15 05:35:48;;;;;;;;;29.75;23.25;;;;;9.26;73.93;102509.56;5058331;28;45492;-74
2021/12/15 05:38:13;;;;;;;;;27.25;22.75;;;;;9.25;73.89;102513.94;5058850;28;45332;-73
2021/12/15 05:40:39;;;;;;;;;25.00;24.75;;;;;9.22;73.95;102500.69;5058591;28;45410;-73
2021/12/15 05:43:06;;;;;;;;;30.50;26.25;;;;;9.32;74.01;102526.50;5058514;28;45451;-73
2021/12/15 05:45:37;;;;;;;;;27.50;24.25;;;;;9.31;74.16;102527.34;5057964;28;45480;-73
2021/12/15 05:48:05;;;;;;;;;28.75;26.25;;;;;9.27;74.13;102501.75;5058565;28;45203;-73
2021/12/15 05:50:31;;;;;;;;;28.50;25.75;;;;;9.27;74.30;102512.25;5059165;28;45394;-73
2021/12/15 05:53:00;;;;;;;;;28.50;25.25;;;;;9.33;73.67;102522.16;5058665;28;45528;-73
2021/12/15 05:55:26;;;;;;;;;24.75;22.25;;;;;9.38;73.62;102525.84;5058274;28;45369;-73
2021/12/15 05:57:51;;;;;;;;;25.75;22.25;;;;;9.41;73.64;102520.72;5058697;28;45354;-73
2021/12/15 06:00:20;;;;;;;;;17.25;17.25;;;;;9.48;73.23;102535.00;5058900;28;45261;-72
2021/12/15 06:02:46;;;;;;;;;30.50;28.00;;;;;9.37;73.66;102517.06;5058092;28;45433;-70
2021/12/15 06:05:12;;;;;;;;;27.50;26.00;;;;;9.40;73.49;102517.22;5057605;28;45382;-71
2021/12/15 06:07:39;;;;;;;;;25.00;24.50;;;;;9.52;73.41;102529.94;5038584;28;45334;-73
2021/12/15 06:10:11;;;;;;;;;24.75;24.00;;;;;9.50;73.14;102529.00;5020682;28;45404;-72
2021/12/15 06:12:36;;;;;;;;;26.75;22.75;;;;;9.51;72.84;102537.78;5038036;28;46180;-73
2021/12/15 06:15:03;;;;;;;;;30.75;25.75;;;;;9.52;73.49;102543.09;5038158;28;45369;-72
2021/12/15 06:17:29;;;;;;;;;25.75;24.75;;;;;9.51;73.18;102541.31;5056892;28;45382;-71
2021/12/15 06:19:56;;;;;;;;;25.25;23.75;;;;;9.53;73.05;102557.16;5057568;28;45452;-72
2021/12/15 06:22:26;;;;;;;;;22.25;20.50;;;;;9.49;72.92;102549.94;5054459;28;46695;-69
2021/12/15 06:24:53;;;;;;;;;28.50;24.75;;;;;9.40;73.12;102529.47;5058142;28;45273;-73
2021/12/15 06:27:20;;;;;;;;;24.75;20.25;;;;;9.51;73.18;102546.56;5057972;28;45242;-74
2021/12/15 06:29:48;;;;;;;;;27.75;22.75;;;;;9.56;73.46;102558.16;5061360;28;45478;-72
2021/12/15 06:32:14;;;;;;;;;32.50;29.75;;;;;9.51;73.54;102536.06;5057507;28;46460;-75
2021/12/15 06:34:41;;;;;;;;;27.50;27.50;;;;;9.59;73.22;102553.03;5039941;28;45441;-75
2021/12/15 06:37:06;;;;;;;;;29.25;27.75;;;;;9.59;72.61;102555.69;5058045;28;45243;-75
2021/12/15 06:39:33;;;;;;;;;25.25;22.50;;;;;9.49;72.92;102537.69;5058123;28;45355;-75
2021/12/15 06:41:59;;;;;;;;;31.00;25.25;;;;;9.67;73.15;102566.47;5056798;28;45451;-73
2021/12/15 06:44:24;;;;;;;;;18.25;17.75;;;;;9.60;72.71;102553.94;5056646;28;45810;-71
2021/12/15 07:00:16;;;;;;;;;30.50;24.00;;;;;9.55;73.05;102566.00;5057727;28;45304;-79
2021/12/15 07:02:42;;;;;;;;;22.00;22.00;;;;;9.61;72.43;102587.31;5057012;28;45503;-79
2021/12/15 07:05:13;;;;;;;;;30.50;25.50;;;;;9.57;72.75;102575.75;5056726;28;45240;-78
2021/12/15 07:07:41;;;;;;;;;25.50;21.50;;;;;9.53;72.25;102560.69;5057359;28;45224;-77
2021/12/15 07:10:10;;;;;;;;;26.50;21.75;;;;;9.56;73.17;102570.41;5037462;28;45244;-80
2021/12/15 07:12:36;;;;;;;;;25.25;22.75;;;;;9.62;72.82;102581.22;5047943;28;46210;-81
2021/12/15 07:15:03;;;;;;;;;27.25;25.00;;;;;9.48;72.20;102559.56;5057050;28;45463;-81
2021/12/15 07:17:29;;;;;;;;;25.25;23.25;;;;;9.62;73.01;102579.47;5057309;28;45180;-78
2021/12/15 07:24:56;;;;;;;;;23.00;21.00;;;;;9.63;72.94;102591.78;5057072;28;45407;-79
2021/12/15 07:27:21;;;;;;;;;24.75;20.25;;;;;9.67;73.02;102604.22;5057041;28;45222;-77
2021/12/15 07:29:47;;;;;;;;;25.75;21.50;;;;;9.45;72.98;102564.72;5057204;28;45219;-77
2021/12/15 07:32:12;;;;;;;;;24.50;23.75;;;;;9.49;72.69;102576.25;5056732;28;46432;-79
2021/12/15 07:34:38;;;;;;;;;26.50;24.00;;;;;9.66;72.26;102596.28;5072155;28;45362;-76
2021/12/15 07:37:03;;;;;;;;;22.00;20.25;;;;;9.71;72.94;102611.44;5056851;28;45598;-77
2021/12/15 07:39:29;;;;;;;;;22.75;20.50;;;;;9.55;73.00;102584.41;5057099;28;45410;-79
2021/12/15 07:42:04;;;;;;;;;26.25;21.00;;;;;9.72;72.56;102609.69;5056023;28;45465;-77
2021/12/15 07:44:30;;;;;;;;;26.25;22.75;;;;;9.75;72.51;102616.81;5056640;28;45335;-77
2021/12/15 07:46:56;;;;;;;;;20.75;19.50;;;;;9.69;72.35;102617.47;5056781;28;45330;-76
2021/12/15 07:49:23;;;;;;;;;19.50;18.75;;;;;9.65;73.32;102613.78;5056833;28;45318;-73
2021/12/15 07:51:53;;;;;;;;;20.00;18.25;;;;;9.68;72.89;102627.09;5056562;28;47315;-76
2021/12/15 07:54:19;;;;;;;;;29.00;18.25;;;;;9.62;72.82;102610.16;5056418;28;45527;-79
2021/12/15 07:56:46;;;;;;;;;21.25;20.75;;;;;9.67;72.90;102620.00;5055160;28;45439;-78
2021/12/15 07:59:12;;;;;;;;;20.00;19.00;;;;;9.64;72.46;102627.78;5066516;28;45424;-75
2021/12/15 08:01:39;;;;;;;;;23.25;18.50;;;;;9.66;72.94;102630.47;5034781;28;46215;-77
2021/12/15 08:04:04;;;;;;;;;20.00;17.00;;;;;9.62;73.09;102618.94;5038713;28;45423;-77
2021/12/15 08:06:30;;;;;;;;;17.25;16.00;;;;;9.65;73.14;102631.31;5040120;28;45254;-76
2021/12/15 08:08:56;;;;;;;;;18.75;15.25;;;;;9.67;73.43;102629.63;5040432;28;45235;-78
2021/12/15 08:11:22;;;;;;;;;17.50;17.25;;;;;9.67;73.66;102622.66;5039990;28;46605;-79
2021/12/15 08:13:47;;;;;;;;;17.25;14.50;;;;;9.77;73.06;102642.38;5039961;28;45415;-79
2021/12/15 08:16:14;;;;;;;;;18.50;18.50;;;;;9.77;73.15;102630.91;5040149;28;45472;-77
2021/12/15 08:18:40;;;;;;;;;19.00;19.00;;;;;9.80;73.38;102638.97;5021616;28;45603;-77
2021/12/15 08:21:06;;;;;;;;;20.50;16.25;;;;;9.78;73.69;102633.63;5039425;28;45587;-78
2021/12/15 08:23:32;;;;;;;;;17.00;16.75;;;;;9.84;72.89;102647.03;5039526;28;45319;-79
2021/12/15 08:25:58;;;;;;;;;15.00;14.25;;;;;9.88;73.33;102648.06;5039959;28;45504;-78
2021/12/15 08:28:23;;;;;;;;;16.75;15.75;;;;;9.83;72.57;102628.53;5040097;28;45391;-78
2021/12/15 08:30:50;;;;;;;;;19.00;17.75;;;;;9.92;72.73;102640.34;5039201;28;46229;-78
2021/12/15 08:33:19;;;;;;;;;20.00;17.50;;;;;9.86;73.28;102632.19;5039264;28;45558;-76
2021/12/15 08:35:53;;;;;;;;;18.00;15.25;;;;;9.89;72.74;102642.88;5021534;28;45369;-78
2021/12/15 08:38:20;;;;;;;;;17.00;16.50;;;;;9.79;73.25;102621.38;5039889;28;45414;-78
2021/12/15 08:40:46;;;;;;;;;17.50;15.25;;;;;9.88;73.95;102641.06;5039245;28;45458;-76
2021/12/15 08:43:14;;;;;;;;;20.00;18.00;;;;;9.83;73.66;102625.91;5039500;28;45514;-77
2021/12/15 08:45:43;;;;;;;;;9.75;7.75;;;;;9.93;73.52;102652.66;5039747;28;45296;-78
2021/12/15 08:48:10;;;;;;;;;18.00;15.00;;;;;9.95;74.03;102650.09;5039752;28;45485;-78
2021/12/15 08:50:39;;;;;;;;;18.50;17.75;;;;;10.00;73.52;102645.94;5039327;28;45659;-78
2021/12/15 08:53:09;;;;;;;;;16.25;15.00;;;;;9.98;73.67;102632.72;5040698;28;45432;-78
2021/12/15 08:55:35;;;;;;;;;16.50;16.00;;;;;10.08;73.08;102643.59;5022939;28;45372;-78
2021/12/15 08:58:05;;;;;;;;;21.25;20.50;;;;;9.95;73.00;102618.50;5040755;28;45526;-78
2021/12/15 09:00:30;;;;;;;;;25.00;22.50;;;;;10.19;73.48;102659.00;5022485;28;46461;-78
2021/12/15 09:02:56;;;;;;;;;27.25;23.75;;;;;10.11;73.56;102620.00;5040199;28;45339;-77
2021/12/15 09:05:23;;;;;;;;;25.00;21.50;;;;;10.19;72.74;102637.03;5040640;28;45386;-78
2021/12/15 09:07:52;;;;;;;;;20.25;19.25;;;;;10.23;73.08;102634.59;5040780;28;45345;-78
2021/12/15 09:10:20;;;;;;;;;20.50;17.50;;;;;10.21;72.87;102630.97;5022824;28;48242;-79
2021/12/15 09:12:46;;;;;;;;;21.75;19.75;;;;;10.30;72.23;102659.44;5040376;28;45319;-78
2021/12/15 09:15:12;;;;;;;;;17.00;16.25;;;;;10.17;72.83;102622.91;5039667;28;45338;-79
2021/12/15 09:17:38;;;;;;;;;22.00;18.50;;;;;10.32;72.33;102651.59;5040571;28;45317;-79
2021/12/15 09:20:13;;;;;;;;;20.50;17.00;;;;;10.30;71.87;102655.91;5022456;28;47549;-79
2021/12/15 09:22:38;;;;;;;;;19.00;19.00;;;;;10.14;72.31;102626.28;5041233;28;45155;-80
2021/12/15 09:25:06;;;;;;;;;17.75;16.75;;;;;10.33;72.13;102661.28;5040667;28;45508;-79
2021/12/15 09:27:32;;;;;;;;;21.00;18.25;;;;;10.32;72.40;102655.13;5039406;28;45331;-78
2021/12/15 09:29:57;;;;;;;;;4.00;4.00;;;;;10.15;72.72;102627.22;5038680;28;45460;-77
2021/12/15 09:32:23;;;;;;;;;16.00;16.00;;;;;10.23;72.16;102647.75;5038842;28;45704;-79
2021/12/15 09:34:49;;;;;;;;;14.00;12.25;;;;;10.34;72.08;102664.00;5038852;28;45790;-77
2021/12/15 09:37:14;;;;;;;;;17.00;15.00;;;;;10.36;72.34;102664.97;5038883;28;45330;-79
2021/12/15 09:39:39;;;;;;;;;13.50;13.00;;;;;10.30;71.50;102661.19;5038591;28;46353;-78
2021/12/15 09:42:05;;;;;;;;;18.50;15.00;;;;;10.35;71.86;102657.00;5038395;28;45393;-79
2021/12/15 09:44:31;;;;;;;;;28.00;22.25;;;;;10.38;72.58;102667.66;5038741;28;45248;-78
2021/12/15 10:03:28;;;;;;;;;9.25;9.00;;;;;10.37;71.90;102636.88;5038088;28;45505;-79
2021/12/15 10:06:05;;;;;;;;;17.00;15.00;;;;;10.54;71.77;102656.88;5038147;28;45512;-78
2021/12/15 10:11:45;;;;;;;;;10.25;8.50;;;;;10.45;71.56;102659.16;5037668;28;45752;-78
2021/12/15 10:19:51;;;;;;;;;14.75;12.25;;;;;10.44;71.26;102657.34;5038192;28;45497;-78
2021/12/15 10:22:31;;;;;;;;;17.25;16.25;;;;;10.48;71.71;102651.34;5037814;28;46421;-79
2021/12/15 10:25:11;;;;;;;;;17.25;14.25;;;;;10.52;71.35;102659.44;5038308;28;45331;-79
2021/12/15 10:27:57;;;;;;;;;11.25;11.25;;;;;10.55;72.44;102675.38;5038245;28;45512;-77
2021/12/15 10:30:34;;;;;;;;;15.50;14.50;;;;;10.39;71.76;102646.63;4976459;28;45508;-78
2021/12/15 10:33:21;;;;;;;;;8.25;8.25;;;;;10.21;72.00;102601.09;4975931;28;47032;-78
2021/12/15 10:35:58;;;;;;;;;14.75;10.75;;;;;10.59;71.54;102672.84;4976353;28;45432;-78
2021/12/15 10:38:33;;;;;;;;;18.00;15.50;;;;;10.51;70.98;102657.63;4975998;28;45294;-77
2021/12/15 10:40:58;;;;;;;;;14.75;12.50;;;;;10.63;71.45;102672.13;4976208;28;45482;-77
2021/12/15 10:43:29;;;;;;;;;14.00;13.25;;;;;10.59;71.27;102659.66;4976034;28;46395;-78
2021/12/15 10:46:01;;;;;;;;;18.00;17.00;;;;;10.68;71.10;102665.28;4975731;28;45440;-78
2021/12/15 10:48:36;;;;;;;;;11.75;11.75;;;;;10.67;70.84;102653.84;4976180;28;45463;-78
2021/12/15 10:51:20;;;;;;;;;14.75;14.00;;;;;10.77;71.22;102658.63;4976060;28;45469;-78
2021/12/15 10:53:46;;;;;;;;;16.25;15.00;;;;;10.70;70.95;102658.31;4975774;28;47433;-78
2021/12/15 10:56:14;;;;;;;;;15.75;14.50;;;;;10.61;70.51;102640.47;4975677;28;45415;-78
2021/12/15 10:58:43;;;;;;;;;14.00;14.00;;;;;10.72;71.17;102662.84;4975573;28;45422;-78
2021/12/15 11:01:46;;;;;;;;;17.00;13.75;;;;;10.84;70.83;102665.03;4975998;28;45578;-78
2021/12/15 11:04:24;;;;;;;;;20.75;19.50;;;;;10.88;70.23;102650.22;4975911;28;45779;-77
2021/12/15 11:07:11;;;;;;;;;14.75;12.00;;;;;10.92;70.43;102668.84;4988274;28;45420;-78
2021/12/15 11:10:07;;;;;;;;;14.25;14.25;;;;;10.97;71.14;102659.34;5037643;28;45349;-78
2021/12/15 11:12:35;;;;;;;;;16.50;15.50;;;;;11.02;70.74;102656.91;5037391;28;45382;-76
2021/12/15 11:15:07;;;;;;;;;18.00;13.75;;;;;10.77;70.19;102612.91;5037405;28;45442;-77
2021/12/15 11:17:36;;;;;;;;;17.25;17.25;;;;;11.02;70.74;102644.59;5037358;28;45376;-76
2021/12/15 11:20:23;;;;;;;;;16.00;15.00;;;;;11.15;70.48;102659.13;5019717;28;45378;-77
2021/12/15 11:23:12;;;;;;;;;22.25;14.50;;;;;11.21;70.33;102654.06;5037735;28;45431;-77
2021/12/15 11:25:40;;;;;;;;;15.00;15.00;;;;;11.30;70.01;102657.03;5037428;28;45496;-78
2021/12/15 11:28:11;;;;;;;;;22.75;19.75;;;;;11.02;70.10;102599.78;5037494;28;45418;-78
2021/12/15 11:30:45;;;;;;;;;15.25;14.00;;;;;11.21;68.81;102627.69;5036924;28;45480;-77
2021/12/15 11:33:32;;;;;;;;;16.00;14.50;;;;;11.32;68.64;102644.78;5044936;28;45407;-77
2021/12/15 11:36:03;;;;;;;;;15.75;14.25;;;;;11.38;69.58;102652.03;5054875;28;47495;-75
2021/12/15 11:38:37;;;;;;;;;12.75;11.50;;;;;11.38;69.11;102646.75;5057761;28;46887;-78
2021/12/15 11:41:05;;;;;;;;;19.75;15.75;;;;;11.39;70.19;102643.25;5052301;28;45592;-78
2021/12/15 11:43:51;;;;;;;;;12.25;12.00;;;;;11.41;69.26;102645.09;5053461;28;45569;-78
2021/12/15 11:46:30;;;;;;;;;10.25;8.75;;;;;11.17;69.24;102623.16;5056012;28;45473;-77
2021/12/15 11:49:03;;;;;;;;;12.00;12.00;;;;;10.91;70.16;102593.22;5050912;28;45191;-77
2021/12/15 11:51:39;;;;;;;;;11.50;10.25;;;;;11.27;69.77;102642.84;5055314;28;45575;-79
2021/12/15 11:54:38;;;;;;;;;18.25;17.00;;;;;10.89;70.49;102576.47;5057227;28;45378;-77
2021/12/15 11:57:14;;;;;;;;;12.50;11.00;;;;;11.26;70.02;102628.75;5052251;28;46048;-79
2021/12/15 11:59:49;;;;;;;;;11.75;11.75;;;;;11.25;70.12;102611.09;5056655;28;45564;-78
2021/12/15 12:02:25;;;;;;;;;16.25;14.75;;;;;11.23;69.38;102593.44;5055622;28;45580;-75
2021/12/15 12:05:12;;;;;;;;;15.75;12.25;;;;;11.36;69.58;102616.78;5056264;28;45338;-75
2021/12/15 12:07:47;;;;;;;;;15.25;13.50;;;;;11.50;68.70;102630.44;5056439;28;45451;-76
2021/12/15 12:10:13;;;;;;;;;16.25;11.50;;;;;11.46;69.76;102626.81;5034663;28;45374;-75
2021/12/15 12:12:51;;;;;;;;;16.25;12.75;;;;;11.26;69.77;102597.09;5036924;28;45446;-76
2021/12/15 12:15:19;;;;;;;;;15.50;14.00;;;;;11.47;68.83;102628.59;5055771;28;45602;-75
2021/12/15 12:17:47;;;;;;;;;9.00;9.00;;;;;11.48;68.84;102624.22;5038271;28;45592;-76
2021/12/15 12:20:27;;;;;;;;;12.75;12.00;;;;;11.39;68.95;102616.88;5055942;28;45504;-75
2021/12/15 12:22:55;;;;;;;;;13.25;13.25;;;;;11.49;69.64;102628.63;5056527;28;45230;-75
2021/12/15 12:25:25;;;;;;;;;21.00;18.00;;;;;11.49;68.75;102620.72;5056073;28;45442;-77
2021/12/15 12:28:01;;;;;;;;;12.25;12.25;;;;;11.45;68.47;102605.63;5049545;28;45734;-76
2021/12/15 12:30:31;;;;;;;;;12.00;11.00;;;;;11.55;68.08;102618.31;5054037;28;45493;-76
2021/12/15 12:32:58;;;;;;;;;16.25;13.00;;;;;11.54;68.47;102605.91;5054287;28;45388;-74
2021/12/15 12:35:29;;;;;;;;;17.00;17.00;;;;;11.45;68.83;102582.78;5055735;28;45508;-78
2021/12/15 12:38:00;;;;;;;;;23.25;23.25;;;;;11.40;67.98;102561.50;5052523;28;45748;-77